Columbus, Kansas
Current Conditions -  °F | °C
As of 1:53 AM on Tuesday 21 Oct 2014 (Local Time) from KJLN Reporting Station
Haze Haze  
Wind Chill: 52°   Ceiling: Unl
Heat Index: 52°   Visibility: 4mi
Dew Point: 52°   Wind: 6mph
Humidity: 100%   Direction: 180°S
Pressure: 30.09"   Gusts: NA
Location:  37.17°N, 94.84°W
Report Text: KJLN 210653Z AUTO 18005KT 4SM BR CLR 11/11 A3009 RMK AO2 SLP184 T01110111
Loading
Personal Weather Stations






























Interactive Weather Map
Tropical Storm Tracking
New forecast layout! Learn more

10-Day Weather Forecast

Advertisements
Track Severe Weather on mobile